Latest Weather Observations for Wilsons Promontory

IDV60801

Issued at 5:12 pm EDT Saturday 5 December 2020 (issued every 10 minutes, with the page automatically refreshed every 10 minutes)

About weather observations | Map of weather stations | Latest weather observations for VIC | Other Formats
Station Details ID: 085096 Name: WILSONS PROMONTORY LIGHTHOUSE Lat: -39.13 Lon: 146.42 Height: 95.0 m
Data from the previous 72 hours. | See also: Recent months at Wilsons Promontory
Date/Time
EDT
Temp
°C
App
Temp
°C
Dew
Point
°C
Rel
Hum
%
Delta-T
°C
Wind Press
QNH
hPa
Press
MSL
hPa
Rain since
9am
mm
Dir  Spd
km/h
Gust
km/h
Spd
kts
Gust
kts
05/05:00pm 16.5 14.1 14.3 87 1.3 NNE 20 33 11 18 992.7 992.6 0.6
05/04:30pm 18.7 15.8 14.0 74 2.7 N 22 37 12 20 993.9 - 0.4
05/04:00pm 18.5 15.5 12.5 68 3.4 N 20 32 11 17 994.5 - 0.0
05/03:30pm 16.7 12.0 13.2 80 2.0 NNE 30 39 16 21 995.4 - 0.0
05/03:00pm 16.5 11.4 13.2 81 1.9 N 32 43 17 23 994.8 994.6 0.0
05/02:30pm 16.5 11.8 12.1 75 2.4 NNE 28 46 15 25 996.0 - 0.0
05/02:29pm 16.4 11.7 12.0 75 2.4 NNE 28 46 15 25 996.0 - 0.0
05/02:00pm 16.7 11.5 11.6 72 2.8 NNE 30 43 16 23 996.9 - 0.0
05/01:43pm 16.7 10.8 12.3 75 2.4 NNE 35 54 19 29 997.2 - 0.0
05/01:30pm 16.6 10.4 12.8 78 2.1 NNE 37 46 20 25 997.4 - 0.0
05/01:00pm 16.4 9.9 12.9 80 2.0 NNE 39 48 21 26 998.6 - 0.0
05/12:30pm 16.0 9.4 12.7 81 1.8 NNE 39 48 21 26 999.4 - 0.0
05/12:00pm 16.3 8.4 12.8 80 2.0 NNE 46 57 25 31 999.4 999.3 0.0
05/11:30am 16.4 9.9 12.8 79 2.0 NNE 39 48 21 26 1000.9 - 0.0
05/11:00am 16.0 9.7 12.4 79 2.0 NNE 37 50 20 27 1001.6 - 0.0
05/10:40am 15.7 8.1 11.7 77 2.2 NNE 43 61 23 33 1002.0 - 0.0
05/10:30am 15.5 8.6 11.7 78 2.1 NNE 39 52 21 28 1001.8 - 0.0
05/10:06am 15.3 7.5 11.1 76 2.3 N 43 61 23 33 1002.5 - 0.0
05/10:00am 15.3 7.9 11.1 76 2.3 N 41 56 22 30 1002.5 - 0.0
05/09:46am 15.3 7.4 11.5 78 2.1 N 44 57 24 31 1003.0 - 0.0
05/09:30am 15.1 7.5 11.9 81 1.7 NNE 43 61 23 33 1003.3 - 0.0
05/09:24am 15.1 8.7 11.9 81 1.7 NNE 37 56 20 30 1004.0 - 0.0
05/09:00am 14.9 9.9 12.2 84 1.5 NE 30 43 16 23 1005.2 1005.1 0.0
05/08:30am 14.8 8.4 11.9 83 1.6 NNE 37 48 20 26 1005.0 - 0.0
05/08:00am 14.7 9.9 11.8 83 1.6 NNE 28 44 15 24 1005.8 - 0.0
05/07:30am 14.3 9.0 11.3 82 1.6 NNE 30 39 16 21 1006.1 - 0.0
05/07:00am 14.1 8.6 10.7 80 1.8 NNE 30 43 16 23 1006.4 - 0.0
05/06:30am 14.2 8.7 10.4 78 2.0 N 30 43 16 23 1006.6 - 0.0
05/06:00am 14.1 9.7 10.5 79 1.9 NNE 24 33 13 18 1006.9 1006.7 0.0
05/05:30am 13.7 10.0 10.3 80 1.8 NNE 20 28 11 15 1007.2 - 0.0
05/05:00am 13.5 9.6 10.7 83 1.5 NNE 22 32 12 17 1007.1 - 0.0
05/04:30am 13.5 9.9 10.7 83 1.5 NNE 20 26 11 14 1007.6 - 0.0
05/04:00am 13.5 9.2 10.7 83 1.5 N 24 39 13 21 1008.5 - 0.0
05/03:30am 13.3 9.8 10.1 81 1.7 NNE 19 28 10 15 1009.1 - 0.0
05/03:00am 13.4 11.5 10.4 82 1.6 NE 11 15 6 8 1009.8 1009.7 0.0
05/02:30am 13.1 11.2 10.5 84 1.4 N 11 15 6 8 1010.3 - 0.0
05/02:00am 13.3 12.2 10.7 84 1.4 WNW 7 17 4 9 1011.3 - 0.0
05/01:30am 13.2 11.3 10.6 84 1.4 W 11 13 6 7 1011.3 - 0.0
05/01:00am 13.3 10.7 10.7 84 1.4 W 15 22 8 12 1011.8 - 0.0
05/12:30am 13.3 9.9 10.5 83 1.5 W 19 22 10 12 1012.3 - 0.0
05/12:00am 13.3 10.6 10.5 83 1.5 W 15 19 8 10 1012.7 1012.6 0.0
 
Date/Time
EDT
Temp
°C
App
Temp
°C
Dew
Point
°C
Rel
Hum
%
Delta-T
°C
Wind Press
QNH
hPa
Press
MSL
hPa
Rain since
9am
mm
Dir  Spd
km/h
Gust
km/h
Spd
kts
Gust
kts
04/11:30pm 13.4 11.1 10.6 83 1.5 W 13 17 7 9 1013.1 - 0.0
04/11:00pm 13.3 11.0 10.5 83 1.5 W 13 17 7 9 1013.4 - 0.0
04/10:30pm 13.6 11.0 10.6 82 1.6 WNW 15 19 8 10 1013.5 - 0.0
04/10:00pm 13.7 11.4 10.5 81 1.7 W 13 19 7 10 1013.2 - 0.0
04/09:30pm 14.0 11.4 10.8 81 1.7 W 15 20 8 11 1013.3 - 0.0
04/09:00pm 14.3 11.0 10.9 80 1.8 W 19 24 10 13 1012.9 1012.8 0.0
04/08:30pm 14.5 11.1 10.7 78 2.0 W 19 26 10 14 1012.9 - 0.0
04/08:00pm 15.1 9.6 10.5 74 2.4 W 30 39 16 21 1013.0 - 0.0
04/07:30pm 15.3 9.5 10.7 74 2.4 W 32 43 17 23 1013.3 - 0.0
04/07:00pm 15.6 9.2 10.6 72 2.7 W 35 50 19 27 1013.3 - 0.0
04/06:30pm 16.0 10.1 11.0 72 2.7 W 33 52 18 28 1013.0 - 0.0
04/06:00pm 16.0 8.2 11.0 72 2.7 W 43 61 23 33 1012.6 1012.5 0.0
04/05:30pm 16.0 8.2 11.0 72 2.7 W 43 67 23 36 1012.1 - 0.0
04/05:00pm 16.0 7.9 10.7 71 2.8 W 44 69 24 37 1012.5 - 0.0
04/04:30pm 16.4 8.0 10.9 70 3.0 W 46 65 25 35 1012.5 - 0.0
04/04:00pm 16.2 6.9 10.5 69 3.0 W 50 74 27 40 1012.8 - 0.0
04/03:30pm 16.5 7.7 10.8 69 3.1 W 48 72 26 39 1013.3 - 0.0
04/03:00pm 16.5 7.4 9.9 65 3.5 W 48 69 26 37 1013.5 1013.4 0.0
04/02:30pm 16.6 7.2 10.0 65 3.5 W 50 74 27 40 1013.5 - 0.0
04/02:00pm 17.1 8.1 10.2 64 3.7 W 48 72 26 39 1013.8 - 0.0
04/01:31pm 16.4 5.6 9.3 63 3.7 W 56 76 30 41 1013.6 - 0.0
04/01:30pm 16.4 5.6 9.1 62 3.8 W 56 72 30 39 1013.7 - 0.0
04/01:00pm 16.2 5.3 9.4 64 3.5 W 57 78 31 42 1014.2 - 0.0
04/12:48pm 16.2 4.8 8.9 62 3.8 W 59 78 32 42 1014.1 - 0.0
04/12:44pm 16.2 3.5 8.4 60 4.0 W 65 78 35 42 1013.9 - 0.0
04/12:30pm 16.6 8.0 8.8 60 4.0 W 44 70 24 38 1014.3 - 0.0
04/12:00pm 17.2 9.7 9.4 60 4.1 W 39 59 21 32 1014.3 1014.2 0.0
04/11:30am 16.1 7.0 8.6 61 3.8 W 46 69 25 37 1014.2 - 0.0
04/11:00am 16.7 9.9 9.4 62 3.8 W 35 54 19 29 1014.4 - 0.0
04/10:31am 16.7 8.4 9.4 62 3.8 W 43 61 23 33 1014.5 - 0.0
04/10:30am 16.7 8.2 9.4 62 3.8 W 44 61 24 33 1014.4 - 0.0
04/10:02am 15.9 9.2 9.6 66 3.3 W 35 54 19 29 1014.6 - 0.0
04/10:00am 15.9 8.8 9.6 66 3.3 W 37 54 20 29 1014.7 - 0.0
04/09:41am 15.3 8.4 8.8 65 3.3 W 35 54 19 29 1014.5 - 0.0
04/09:30am 15.4 9.9 9.1 66 3.2 W 28 44 15 24 1014.8 - 0.0
04/09:00am 15.8 10.3 9.2 65 3.4 W 28 50 15 27 1014.8 1014.7 0.0
04/08:30am 15.2 8.7 9.1 67 3.1 W 33 46 18 25 1014.5 - 0.0
04/08:00am 15.0 8.2 9.4 69 2.9 W 35 46 19 25 1014.2 - 0.0
04/07:30am 14.0 8.8 10.2 78 2.0 W 28 41 15 22 1013.9 - 0.0
04/07:05am 13.8 8.5 10.0 78 2.0 W 28 46 15 25 1014.0 - 0.0
04/07:00am 13.7 9.5 9.6 76 2.1 W 22 35 12 19 1014.2 - 0.0
04/06:30am 13.3 9.2 8.6 73 2.4 W 20 26 11 14 1014.1 - 0.0
04/06:00am 12.9 10.0 8.0 72 2.4 WNW 13 19 7 10 1013.8 1013.7 0.0
04/05:30am 12.8 9.9 8.1 73 2.3 W 13 15 7 8 1014.0 - 0.0
04/05:00am 12.7 10.5 8.0 73 2.3 W 9 9 5 5 1013.6 - 0.0
04/04:30am 12.7 10.5 8.0 73 2.3 W 9 11 5 6 1013.7 - 0.0
04/04:00am 12.8 10.9 7.7 71 2.5 W 7 9 4 5 1013.9 - 0.0
04/03:30am 12.8 10.9 7.5 70 2.6 W 7 9 4 5 1014.2 - 0.0
04/03:00am 12.8 10.1 7.3 69 2.7 W 11 13 6 7 1014.4 1014.3 0.0
04/02:30am 12.7 10.7 7.2 69 2.7 WSW 7 13 4 7 1014.7 - 0.0
04/02:00am 12.9 9.4 8.6 75 2.2 N 17 26 9 14 1015.0 - 0.0
04/01:30am 13.1 9.1 8.2 72 2.4 N 19 28 10 15 1015.2 - 0.0
04/01:00am 12.9 8.7 7.4 69 2.7 N 19 26 10 14 1015.7 - 0.0
04/12:30am 12.8 8.6 5.9 63 3.3 NNE 17 22 9 12 1016.1 - 0.0
04/12:00am 12.9 8.7 5.6 61 3.4 NNE 17 20 9 11 1016.9 1016.8 0.0
 
Date/Time
EDT
Temp
°C
App
Temp
°C
Dew
Point
°C
Rel
Hum
%
Delta-T
°C
Wind Press
QNH
hPa
Press
MSL
hPa
Rain since
9am
mm
Dir  Spd
km/h
Gust
km/h
Spd
kts
Gust
kts
03/11:30pm 12.8 8.6 5.5 61 3.4 NNE 17 20 9 11 1017.1 - 0.0
03/11:00pm 12.7 9.7 5.8 63 3.3 NNE 11 13 6 7 1017.6 - 0.0
03/10:30pm 12.9 9.9 6.0 63 3.3 N 11 15 6 8 1018.3 - 0.0
03/10:00pm 12.8 10.7 6.8 67 2.9 NNW 7 11 4 6 1018.3 - 0.0
03/09:30pm 13.5 9.6 7.3 66 3.0 WSW 17 20 9 11 1017.9 - 0.0
03/09:00pm 13.8 10.0 7.6 66 3.1 WSW 17 20 9 11 1017.8 1017.7 0.0
03/08:30pm 13.9 9.6 7.0 63 3.4 SW 19 22 10 12 1017.8 - 0.0
03/08:00pm 14.3 9.8 7.1 62 3.5 SW 20 30 11 16 1017.9 - 0.0
03/07:30pm 14.7 9.3 6.3 57 4.1 SW 24 28 13 15 1017.9 - 0.0
03/07:00pm 15.3 11.2 6.3 55 4.4 W 17 24 9 13 1018.1 - 0.0
03/06:30pm 15.3 10.2 6.1 54 4.5 W 22 30 12 16 1018.3 - 0.0
03/06:00pm 15.3 10.4 5.2 51 4.8 W 20 30 11 16 1018.4 1018.3 0.0
03/05:30pm 15.6 11.1 7.1 57 4.2 W 20 30 11 16 1018.8 - 0.0
03/05:00pm 15.5 9.2 7.3 58 4.1 WSW 30 39 16 21 1018.9 - 0.0
03/04:30pm 14.6 6.4 6.7 59 3.9 WSW 39 46 21 25 1018.9 - 0.0
03/04:00pm 14.7 6.9 6.8 59 3.9 WSW 37 46 20 25 1018.8 - 0.0
03/03:30pm 15.7 8.9 7.7 59 4.0 W 33 43 18 23 1019.1 - 0.0
03/03:00pm 15.2 8.1 8.2 63 3.5 WSW 35 43 19 23 1019.3 1019.2 0.0
03/02:30pm 15.2 8.0 7.7 61 3.8 WSW 35 44 19 24 1019.4 - 0.0
03/02:00pm 15.2 8.5 7.2 59 4.0 W 32 41 17 22 1019.5 - 0.0
03/01:30pm 14.7 8.3 7.0 60 3.8 WSW 30 37 16 20 1019.6 - 0.0
03/01:00pm 15.6 10.0 5.2 50 5.0 W 24 39 13 21 1020.3 - 0.0
03/12:30pm 14.9 9.3 5.4 53 4.5 W 24 37 13 20 1020.5 - 0.0
03/12:00pm 15.3 10.4 4.9 50 4.9 W 20 28 11 15 1021.1 1021.0 0.0
03/11:30am 14.5 8.3 4.5 51 4.7 W 26 35 14 19 1021.3 - 0.0
03/11:00am 14.7 9.1 3.2 46 5.2 W 22 26 12 14 1021.5 - 0.0
03/10:30am 14.5 9.7 4.5 51 4.7 W 19 28 10 15 1021.4 - 0.0
03/10:00am 13.6 7.9 4.7 55 4.1 W 24 37 13 20 1021.9 - 0.0
03/09:30am 13.7 8.8 5.1 56 4.0 W 20 32 11 17 1022.3 - 0.0
03/09:00am 13.6 7.8 4.5 54 4.2 W 24 33 13 18 1022.6 1022.5 0.0
03/08:30am 13.9 9.8 4.2 52 4.5 W 15 24 8 13 1022.3 - 0.0
03/08:00am 12.8 9.2 5.0 59 3.6 W 13 20 7 11 1022.0 - 0.0
03/07:30am 13.7 10.2 5.3 57 4.0 W 13 17 7 9 1021.6 - 0.0
03/07:00am 12.0 8.1 5.4 64 3.1 W 15 17 8 9 1021.8 - 0.0
03/06:30am 11.8 7.8 5.0 63 3.1 WNW 15 22 8 12 1021.9 - 0.0
03/06:00am 11.5 7.5 4.9 64 3.0 W 15 20 8 11 1021.7 1021.6 0.0
03/05:30am 11.5 7.1 4.9 64 3.0 W 17 20 9 11 1021.5 - 0.0
03/05:00am 11.2 7.6 4.9 65 2.9 W 13 19 7 10 1021.1 - 0.0
03/04:30am 11.4 7.8 4.8 64 3.0 W 13 19 7 10 1021.3 - 0.0
03/04:00am 11.4 7.1 5.1 65 2.9 W 17 22 9 12 1021.5 - 0.0
03/03:30am 11.4 7.0 4.8 64 3.0 W 17 24 9 13 1021.7 - 0.0
03/03:00am 11.4 7.1 5.1 65 2.9 W 17 20 9 11 1021.7 1021.6 0.0
03/02:30am 11.8 7.5 5.4 65 3.0 W 17 20 9 11 1021.8 - 0.0
03/02:00am 11.9 8.0 5.3 64 3.1 W 15 19 8 10 1022.3 - 0.0
03/01:30am 12.0 8.3 6.1 67 2.8 W 15 20 8 11 1022.9 - 0.0
03/01:00am 12.3 7.5 4.8 60 3.5 W 19 24 10 13 1023.2 - 0.0
03/12:30am 12.4 7.6 4.4 58 3.7 W 19 28 10 15 1023.4 - 0.0
03/12:00am 12.6 7.9 5.1 60 3.5 W 19 26 10 14 1023.8 1023.7 0.0
 
Date/Time
EDT
Temp
°C
App
Temp
°C
Dew
Point
°C
Rel
Hum
%
Delta-T
°C
Wind Press
QNH
hPa
Press
MSL
hPa
Rain since
9am
mm
Dir  Spd
km/h
Gust
km/h
Spd
kts
Gust
kts
02/11:30pm 12.5 7.1 4.5 58 3.7 W 22 32 12 17 1024.0 - 0.0
02/11:00pm 12.7 8.9 5.6 62 3.3 W 15 22 8 12 1024.1 - 0.0
02/10:30pm 13.1 7.1 5.5 60 3.6 W 26 35 14 19 1023.9 - 0.0
02/10:00pm 13.3 6.2 5.7 60 3.6 WSW 32 43 17 23 1024.0 - 0.0
02/09:30pm 13.4 4.8 6.3 62 3.4 WSW 41 50 22 27 1023.5 - 0.0
02/09:00pm 13.4 4.8 6.5 63 3.3 WSW 41 52 22 28 1023.1 1023.0 0.0
02/08:30pm 13.5 4.8 7.5 67 3.0 WSW 43 50 23 27 1023.0 - 0.0
02/08:00pm 13.6 5.8 6.5 62 3.4 WSW 37 48 20 26 1023.2 - 0.0
02/07:33pm 14.0 5.0 6.4 60 3.7 WSW 43 61 23 33 1022.8 - 0.0
02/07:30pm 14.0 4.5 6.6 61 3.6 WSW 46 61 25 33 1022.9 - 0.0
02/07:00pm 13.9 6.0 6.3 60 3.7 WSW 37 57 20 31 1022.5 - 0.0
02/06:37pm 14.6 6.5 5.1 53 4.5 W 37 56 20 30 1022.2 - 0.0
02/06:30pm 14.4 6.0 5.7 56 4.1 W 39 56 21 30 1022.1 - 0.0
02/06:00pm 14.9 5.6 5.1 52 4.6 W 43 57 23 31 1021.8 1021.7 0.0
02/05:30pm 14.4 5.2 6.3 58 3.9 W 44 59 24 32 1021.8 - 0.0

Other formats

Comma delimited format used in spreadsheet applications
http://www.bom.gov.au/fwo/IDV60801/IDV60801.94893.axf

JavaScript Object Notation format (JSON) in row-major order
http://www.bom.gov.au/fwo/IDV60801/IDV60801.94893.json

Data quality

Most of these data are generated automatically and are frequently updated. Quality checks on data are not normally performed. It is possible for incorrect values to appear. Refer to information at About Latest Weather Observations and please check the disclaimer before using these data.